Ana Sayfa
METAR-TAF:

METAR-TAF

Havaalanları :

Brown Field Municipal Airport

San Diego, Kaliforniya, Amerika Birleşik Devletleri

Enlem: 32-34-31N, Boylam: 116-59-35W, yükseklik: 164 m

Güncel hava durumu gözlemi

Rapor saat 01:53 UTC de 35 dakika önce yapıldı.
Rüzgar kuzeybatıdan 3 kt
Sıcaklık 13°C
Nem 82%
Basınç 1021 hPa
Görüş mesafesi: 16.1 km
1800 ft yükseklikte parçalı bulutlu
4100 ft yükseklikte parçalı çok bulutlu

METAR: KSDM 220153Z 31003KT 10SM SCT018 BKN041 13/10 A3015 RMK AO2 SLP209 T01280100

Saat: 18:28 (02:28 UTC)


TAF: eksik

4.000'den fazla havaalanı için hava durumu gözlemleri ve tahminleri (METAR ve TAF raporları).

Kullanılabilir istasyonlar harita üzerinde sarı ve kırmızı noktalarla gösterilir.

İstasyonun adını görmek için fareyi noktanın üzerinde gezdirin.

Sonrasında hava gözlem ve tahminlerini görmek için tıklayın.

Haritayı değiştirmek için: yaklaştırmak için siyah artı işaretli yeşil düğmeye ve uzaklaştırmak için de eksi işaretli düğmeye hızla tıklayın; bitişik haritalar için yeşil okları kullanın.


METAR-TAF: